createdAt,value
2022-08-05T00:01:36.159Z,19.06
2022-08-05T00:04:17.276Z,19.11
2022-08-05T00:06:47.043Z,19.14
2022-08-05T00:09:14.889Z,19.18
2022-08-05T00:11:49.058Z,19.19
2022-08-05T00:14:29.055Z,19.25
2022-08-05T00:16:57.576Z,19.29
2022-08-05T00:19:33.646Z,19.25
2022-08-05T00:22:08.168Z,19.23
2022-08-05T00:24:42.577Z,19.22
2022-08-05T00:27:14.208Z,19.21
2022-08-05T00:29:44.524Z,19.19
2022-08-05T00:32:15.261Z,19.17
2022-08-05T00:35:04.312Z,19.11
2022-08-05T00:37:50.465Z,19.08
2022-08-05T00:40:27.733Z,19.02
2022-08-05T00:42:58.782Z,18.96
2022-08-05T00:45:38.886Z,18.93
2022-08-05T00:48:27.435Z,18.83
2022-08-05T00:50:54.976Z,18.84
2022-08-05T00:54:01.187Z,18.77
2022-08-05T00:56:11.470Z,18.76
2022-08-05T00:58:39.486Z,18.76
2022-08-05T01:01:11.415Z,18.67
2022-08-05T01:03:40.566Z,18.59
2022-08-05T01:06:14.235Z,18.58
2022-08-05T01:08:44.554Z,18.52
2022-08-05T01:11:36.885Z,18.53
2022-08-05T01:14:49.980Z,18.50
2022-08-05T01:17:26.496Z,18.48
2022-08-05T01:20:25.697Z,18.49
2022-08-05T01:23:34.851Z,18.53
2022-08-05T01:26:32.825Z,18.49
2022-08-05T01:29:05.559Z,18.47
2022-08-05T01:31:58.660Z,18.46
2022-08-05T01:34:32.495Z,18.40
2022-08-05T01:37:36.788Z,18.43
2022-08-05T01:40:14.107Z,18.46
2022-08-05T01:42:48.845Z,18.45
2022-08-05T01:45:17.870Z,18.44
2022-08-05T01:47:49.560Z,18.50
2022-08-05T01:50:28.704Z,18.56
2022-08-05T01:53:02.773Z,18.56
2022-08-05T01:55:36.135Z,18.53
2022-08-05T01:58:15.760Z,18.50
2022-08-05T02:00:49.888Z,18.46
2022-08-05T02:03:37.200Z,18.47
2022-08-05T02:06:33.387Z,18.48
2022-08-05T02:08:58.883Z,18.44
2022-08-05T02:11:36.320Z,18.40
2022-08-05T02:14:17.536Z,18.31
2022-08-05T02:16:56.243Z,18.27
2022-08-05T02:19:47.576Z,18.26
2022-08-05T02:22:28.489Z,18.19
2022-08-05T02:25:06.017Z,18.18
2022-08-05T02:27:59.065Z,18.19
2022-08-05T02:31:00.202Z,18.17
2022-08-05T02:33:36.089Z,18.13
2022-08-05T02:36:13.677Z,18.07
2022-08-05T02:38:52.869Z,18.06
2022-08-05T02:41:23.752Z,18.06
2022-08-05T02:44:06.460Z,18.05
2022-08-05T02:46:58.453Z,18.03
2022-08-05T02:49:37.767Z,18.05
2022-08-05T02:52:30.187Z,18.04
2022-08-05T02:55:05.384Z,18.04
2022-08-05T02:58:11.487Z,18.02
2022-08-05T03:00:28.722Z,18.03
2022-08-05T03:02:58.424Z,18.03
2022-08-05T03:06:53.762Z,18.04
2022-08-05T03:08:16.609Z,18.08
2022-08-05T03:11:55.638Z,18.07
2022-08-05T03:13:52.082Z,18.14
2022-08-05T03:16:21.596Z,18.16
2022-08-05T03:18:49.183Z,18.19
2022-08-05T03:21:16.444Z,18.21
2022-08-05T03:23:45.723Z,18.16
2022-08-05T03:26:30.828Z,18.15
2022-08-05T03:29:01.000Z,18.11
2022-08-05T03:31:55.874Z,18.11
2022-08-05T03:34:17.495Z,18.02
2022-08-05T03:36:45.433Z,18.04
2022-08-05T03:39:20.153Z,18.12
2022-08-05T03:41:57.781Z,18.21
2022-08-05T03:44:29.031Z,18.22
2022-08-05T03:46:57.778Z,18.15
2022-08-05T03:49:30.899Z,18.17
2022-08-05T03:52:37.822Z,18.20
2022-08-05T03:56:03.758Z,18.25
2022-08-05T03:58:29.030Z,18.30
2022-08-05T04:01:01.953Z,18.28
2022-08-05T04:03:35.559Z,18.32
2022-08-05T04:06:08.722Z,18.38
2022-08-05T04:08:37.193Z,18.44
2022-08-05T04:11:08.618Z,18.48
2022-08-05T04:13:50.137Z,18.52
2022-08-05T04:16:24.211Z,18.63
2022-08-05T04:18:54.760Z,18.74
2022-08-05T04:22:09.782Z,18.80
2022-08-05T04:24:19.284Z,18.91
2022-08-05T04:26:50.404Z,19.03
2022-08-05T04:29:18.404Z,19.11
2022-08-05T04:31:47.054Z,19.24
2022-08-05T04:34:31.401Z,19.36
2022-08-05T04:37:03.167Z,19.39
2022-08-05T04:39:32.192Z,19.51
2022-08-05T04:42:00.086Z,19.55
2022-08-05T04:44:30.497Z,19.63
2022-08-05T04:47:08.982Z,19.72
2022-08-05T04:50:01.343Z,19.79
2022-08-05T04:52:28.050Z,19.90
2022-08-05T04:54:57.371Z,20.00
2022-08-05T04:57:28.954Z,20.13
2022-08-05T04:59:57.370Z,20.27
2022-08-05T05:02:41.404Z,20.43
2022-08-05T05:05:16.805Z,20.58
2022-08-05T05:08:01.987Z,20.69
2022-08-05T05:10:42.761Z,20.82
2022-08-05T05:13:23.452Z,20.96
2022-08-05T05:15:57.365Z,21.07
2022-08-05T05:18:33.261Z,21.15
2022-08-05T05:21:03.287Z,21.22
2022-08-05T05:24:01.779Z,21.36
2022-08-05T05:26:28.637Z,21.45
2022-08-05T05:29:14.375Z,21.58
2022-08-05T05:31:42.979Z,21.73
2022-08-05T05:34:14.015Z,21.86
2022-08-05T05:36:43.042Z,21.97
2022-08-05T05:39:13.044Z,22.00
2022-08-05T05:41:42.041Z,22.09
2022-08-05T05:44:35.818Z,22.20
2022-08-05T05:46:58.223Z,22.30
2022-08-05T05:49:26.447Z,22.34
2022-08-05T05:51:55.161Z,22.36
2022-08-05T05:54:35.460Z,22.39
2022-08-05T05:57:13.838Z,22.44
2022-08-05T05:59:47.869Z,22.57
2022-08-05T06:02:16.933Z,22.64
2022-08-05T06:04:44.468Z,22.67
2022-08-05T06:07:16.886Z,22.73
2022-08-05T06:10:04.484Z,22.77
2022-08-05T06:12:42.110Z,22.81
2022-08-05T06:15:16.503Z,22.90
2022-08-05T06:17:52.752Z,22.94
2022-08-05T06:20:21.647Z,22.95
2022-08-05T06:22:49.197Z,22.99
2022-08-05T06:25:58.994Z,23.06
2022-08-05T06:28:11.106Z,23.11
2022-08-05T06:30:48.042Z,23.22
2022-08-05T06:33:33.437Z,23.29
2022-08-05T06:36:13.117Z,23.42
2022-08-05T06:39:27.360Z,23.57
2022-08-05T06:42:04.603Z,23.75
2022-08-05T06:44:32.660Z,23.89
2022-08-05T06:47:02.186Z,24.00
2022-08-05T06:50:00.118Z,24.15
2022-08-05T06:52:37.894Z,24.32
2022-08-05T06:55:06.679Z,24.47
2022-08-05T06:58:03.730Z,24.53
2022-08-05T07:00:22.271Z,24.61
2022-08-05T07:02:53.651Z,24.70
2022-08-05T07:05:36.965Z,24.80
2022-08-05T07:08:06.197Z,24.78
2022-08-05T07:10:39.458Z,24.83
2022-08-05T07:13:57.688Z,24.87
2022-08-05T07:18:01.615Z,24.84
2022-08-05T07:20:23.058Z,24.85
2022-08-05T07:28:00.125Z,24.68
2022-08-05T07:30:32.628Z,24.61
2022-08-05T07:33:49.439Z,24.64
2022-08-05T07:36:20.174Z,24.67
2022-08-05T07:38:54.802Z,24.77
2022-08-05T07:42:13.824Z,24.86
2022-08-05T07:44:18.766Z,24.97
2022-08-05T07:46:49.722Z,25.14
2022-08-05T07:49:18.423Z,25.18
2022-08-05T07:51:53.023Z,25.20
2022-08-05T07:54:30.670Z,25.24
2022-08-05T07:57:13.727Z,25.28
2022-08-05T07:59:48.883Z,25.14
2022-08-05T08:02:17.846Z,25.23
2022-08-05T08:04:46.904Z,25.31
2022-08-05T08:07:15.003Z,25.37
2022-08-05T08:09:43.195Z,25.39
2022-08-05T08:12:37.115Z,25.48
2022-08-05T08:15:09.759Z,25.56
2022-08-05T08:17:46.306Z,25.62
2022-08-05T08:21:03.200Z,25.70
2022-08-05T08:24:02.054Z,25.79
2022-08-05T08:26:30.190Z,25.89
2022-08-05T08:30:03.997Z,25.99
2022-08-05T08:32:18.582Z,26.02
2022-08-05T08:35:04.557Z,26.05
2022-08-05T08:37:46.114Z,26.13
2022-08-05T08:40:22.046Z,26.27
2022-08-05T08:42:55.092Z,26.33
2022-08-05T08:45:29.715Z,26.40
2022-08-05T08:48:10.526Z,26.47
2022-08-05T08:51:03.793Z,26.45
2022-08-05T08:53:40.347Z,26.49
2022-08-05T08:56:12.885Z,26.52
2022-08-05T08:58:47.447Z,26.54
2022-08-05T09:01:18.749Z,26.63
2022-08-05T09:03:54.557Z,26.72
2022-08-05T09:06:30.686Z,26.83
2022-08-05T09:09:00.505Z,26.94
2022-08-05T09:11:51.155Z,26.93
2022-08-05T09:14:58.977Z,26.91
2022-08-05T09:17:41.200Z,26.94
2022-08-05T09:20:12.185Z,27.04
2022-08-05T09:23:18.766Z,27.09
2022-08-05T09:26:02.044Z,27.14
2022-08-05T09:28:34.005Z,27.33
2022-08-05T09:32:41.545Z,27.40
2022-08-05T09:34:48.944Z,27.30
2022-08-05T09:38:12.631Z,27.23
2022-08-05T09:40:53.598Z,27.30
2022-08-05T09:43:49.367Z,27.38
2022-08-05T09:46:32.271Z,27.44
2022-08-05T09:49:24.241Z,27.59
2022-08-05T09:52:19.527Z,27.49
2022-08-05T09:55:55.239Z,27.44
2022-08-05T09:57:54.554Z,27.37
2022-08-05T10:00:26.064Z,27.39
2022-08-05T10:02:58.139Z,27.44
2022-08-05T10:05:29.035Z,27.58
2022-08-05T10:08:34.893Z,27.78
2022-08-05T10:10:54.584Z,27.79
2022-08-05T10:13:49.167Z,27.77
2022-08-05T10:16:33.878Z,27.74
2022-08-05T10:19:13.246Z,27.71
2022-08-05T10:21:41.195Z,27.77
2022-08-05T10:24:12.582Z,27.98
2022-08-05T10:26:49.153Z,28.07
2022-08-05T10:30:07.024Z,28.20
2022-08-05T10:32:55.421Z,28.27
2022-08-05T10:35:04.710Z,28.27
2022-08-05T10:37:40.474Z,28.26
2022-08-05T10:40:28.502Z,28.36
2022-08-05T10:43:31.094Z,28.45
2022-08-05T10:46:08.343Z,28.43
2022-08-05T10:48:56.917Z,28.34
2022-08-05T10:51:48.509Z,28.31
2022-08-05T10:55:01.642Z,28.41
2022-08-05T10:57:29.519Z,28.50
2022-08-05T11:00:20.028Z,28.53
2022-08-05T11:03:25.402Z,28.32
2022-08-05T11:06:15.197Z,28.18
2022-08-05T11:10:03.613Z,28.12
2022-08-05T11:12:45.316Z,28.01
2022-08-05T11:16:00.779Z,28.21
2022-08-05T11:18:46.971Z,28.26
2022-08-05T11:21:51.126Z,28.28
2022-08-05T11:24:29.825Z,28.19
2022-08-05T11:27:45.712Z,28.23
2022-08-05T11:30:18.277Z,28.41
2022-08-05T11:32:47.917Z,28.57
2022-08-05T11:36:08.031Z,28.72
2022-08-05T11:38:45.482Z,28.97
2022-08-05T11:41:56.287Z,29.22
2022-08-05T11:44:40.906Z,29.42
2022-08-05T11:47:11.839Z,29.47
2022-08-05T11:49:50.893Z,29.45
2022-08-05T11:52:29.229Z,29.21
2022-08-05T11:54:59.100Z,29.02
2022-08-05T11:58:08.096Z,28.93
2022-08-05T12:00:31.203Z,28.82
2022-08-05T12:03:15.386Z,28.75
2022-08-05T12:05:43.539Z,28.63
2022-08-05T12:08:11.822Z,28.49
2022-08-05T12:10:49.226Z,28.43
2022-08-05T12:13:47.748Z,28.42
2022-08-05T12:16:18.889Z,28.53
2022-08-05T12:18:49.593Z,28.62
2022-08-05T12:21:23.781Z,28.57
2022-08-05T12:24:10.806Z,28.66
2022-08-05T12:26:49.646Z,28.84
2022-08-05T12:29:23.752Z,29.03
2022-08-05T12:31:54.479Z,29.21
2022-08-05T12:34:31.508Z,29.40
2022-08-05T12:37:10.124Z,29.51
2022-08-05T12:39:40.293Z,29.57
2022-08-05T12:42:15.963Z,29.62
2022-08-05T12:44:45.462Z,29.62
2022-08-05T12:47:17.215Z,29.72
2022-08-05T12:50:03.629Z,29.80
2022-08-05T12:52:42.181Z,29.87
2022-08-05T12:55:26.308Z,29.93
2022-08-05T12:58:52.742Z,30.06
2022-08-05T13:02:01.592Z,30.15
2022-08-05T13:03:39.057Z,30.21
2022-08-05T13:06:16.874Z,30.23
2022-08-05T13:08:51.488Z,30.22
2022-08-05T13:12:01.102Z,30.26
2022-08-05T13:14:20.408Z,30.27
2022-08-05T13:16:56.454Z,30.29
2022-08-05T13:19:40.348Z,30.30
2022-08-05T13:22:15.202Z,30.22
2022-08-05T13:25:05.193Z,30.23
2022-08-05T13:27:42.295Z,30.34
2022-08-05T13:30:35.459Z,30.58
2022-08-05T13:33:02.068Z,30.64
2022-08-05T13:35:42.391Z,30.68
2022-08-05T13:38:20.407Z,30.73
2022-08-05T13:40:59.328Z,30.76
2022-08-05T13:43:45.581Z,30.75
2022-08-05T13:46:16.279Z,30.71
2022-08-05T13:48:58.389Z,30.81
2022-08-05T13:51:40.352Z,30.85
2022-08-05T13:54:12.570Z,30.89
2022-08-05T13:56:45.443Z,30.88
2022-08-05T13:59:30.895Z,30.93
2022-08-05T14:02:00.631Z,30.89
2022-08-05T14:04:52.358Z,30.79
2022-08-05T14:07:26.083Z,30.72
2022-08-05T14:10:28.084Z,30.74
2022-08-05T14:12:57.197Z,30.83
2022-08-05T14:16:08.394Z,30.82
2022-08-05T14:18:17.668Z,30.56
2022-08-05T14:20:47.910Z,30.29
2022-08-05T14:23:24.883Z,30.22
2022-08-05T14:26:00.793Z,30.13
2022-08-05T14:28:29.055Z,30.20
2022-08-05T14:31:00.755Z,30.21
2022-08-05T14:33:56.525Z,30.23
2022-08-05T14:36:21.470Z,30.20
2022-08-05T14:38:50.922Z,30.24
2022-08-05T14:41:18.823Z,30.19
2022-08-05T14:44:02.318Z,30.27
2022-08-05T14:46:35.063Z,30.34
2022-08-05T14:49:07.452Z,30.44
2022-08-05T14:51:38.464Z,30.63
2022-08-05T14:54:26.656Z,30.75
2022-08-05T14:56:58.029Z,30.72
2022-08-05T14:59:29.571Z,30.72
2022-08-05T15:01:58.011Z,30.76
2022-08-05T15:04:27.375Z,30.71
2022-08-05T15:06:57.512Z,30.65
2022-08-05T15:09:51.305Z,30.65
2022-08-05T15:12:16.562Z,30.62
2022-08-05T15:14:49.901Z,30.66
2022-08-05T15:17:46.096Z,30.70
2022-08-05T15:20:18.483Z,30.70
2022-08-05T15:22:54.322Z,30.56
2022-08-05T15:25:51.501Z,30.49
2022-08-05T15:28:15.710Z,30.58
2022-08-05T15:30:45.527Z,30.67
2022-08-05T15:34:18.932Z,30.66
2022-08-05T15:36:06.322Z,30.50
2022-08-05T15:38:46.482Z,30.34
2022-08-05T15:41:21.833Z,30.39
2022-08-05T15:43:54.528Z,30.53
2022-08-05T15:46:24.461Z,30.40
2022-08-05T15:49:00.657Z,30.45
2022-08-05T15:52:13.108Z,30.42
2022-08-05T15:54:34.826Z,30.57
2022-08-05T15:57:07.674Z,30.66
2022-08-05T15:59:36.149Z,30.50
2022-08-05T16:02:09.585Z,30.40
2022-08-05T16:04:43.969Z,30.41
2022-08-05T16:07:11.523Z,30.53
2022-08-05T16:09:41.505Z,30.68
2022-08-05T16:12:09.604Z,30.94
2022-08-05T16:14:39.071Z,31.28
2022-08-05T16:17:06.531Z,31.52
2022-08-05T16:20:04.391Z,31.64
2022-08-05T16:22:24.526Z,31.86
2022-08-05T16:24:55.430Z,32.07
2022-08-05T16:27:32.015Z,32.17
2022-08-05T16:30:25.927Z,32.33
2022-08-05T16:32:54.382Z,32.31
2022-08-05T16:35:28.158Z,32.16
2022-08-05T16:38:03.007Z,32.08
2022-08-05T16:40:51.731Z,32.05
2022-08-05T16:43:25.162Z,31.76
2022-08-05T16:46:03.613Z,31.60
2022-08-05T16:48:38.312Z,31.61
2022-08-05T16:51:09.120Z,31.61
2022-08-05T16:54:04.249Z,31.63
2022-08-05T16:56:30.302Z,31.54
2022-08-05T16:58:58.178Z,31.46
2022-08-05T17:01:26.207Z,31.44
2022-08-05T17:03:53.535Z,31.46
2022-08-05T17:06:20.942Z,31.35
2022-08-05T17:08:54.388Z,31.22
2022-08-05T17:11:25.927Z,30.97
2022-08-05T17:14:00.655Z,30.61
2022-08-05T17:16:36.787Z,30.29
2022-08-05T17:19:07.109Z,29.98
2022-08-05T17:21:36.914Z,29.74
2022-08-05T17:24:28.435Z,29.56
2022-08-05T17:26:58.203Z,29.36
2022-08-05T17:29:34.022Z,29.19
2022-08-05T17:32:11.538Z,29.02
2022-08-05T17:34:49.115Z,28.87
2022-08-05T17:37:39.824Z,28.74
2022-08-05T17:40:14.396Z,28.62
2022-08-05T17:42:50.666Z,28.54
2022-08-05T17:45:22.065Z,28.44
2022-08-05T17:47:54.887Z,28.34
2022-08-05T17:50:28.826Z,28.26
2022-08-05T17:53:00.476Z,28.18
2022-08-05T17:55:37.276Z,28.09
2022-08-05T17:58:12.457Z,28.01
2022-08-05T18:00:47.588Z,27.93
2022-08-05T18:03:59.369Z,27.89
2022-08-05T18:06:12.254Z,27.82
2022-08-05T18:08:46.070Z,27.72
2022-08-05T18:11:24.712Z,27.64
2022-08-05T18:14:13.153Z,27.56
2022-08-05T18:16:51.330Z,27.48
2022-08-05T18:19:22.831Z,27.42
2022-08-05T18:22:09.222Z,27.38
2022-08-05T18:24:40.026Z,27.34
2022-08-05T18:27:16.596Z,27.30
2022-08-05T18:29:51.983Z,27.26
2022-08-05T18:32:27.703Z,27.21
2022-08-05T18:34:57.191Z,27.18
2022-08-05T18:37:34.278Z,27.14
2022-08-05T18:40:57.643Z,27.11
2022-08-05T18:42:58.396Z,27.00
2022-08-05T18:45:26.569Z,26.95
2022-08-05T18:48:11.408Z,26.88
2022-08-05T18:52:05.107Z,26.79
2022-08-05T18:54:03.505Z,26.67
2022-08-05T18:56:30.894Z,26.63
2022-08-05T18:59:01.435Z,26.57
2022-08-05T19:01:33.377Z,26.49
2022-08-05T19:04:24.083Z,26.37
2022-08-05T19:06:53.542Z,26.34
2022-08-05T19:09:21.360Z,26.29
2022-08-05T19:12:00.740Z,26.22
2022-08-05T19:14:37.892Z,26.17
2022-08-05T19:17:18.037Z,26.14
2022-08-05T19:19:48.717Z,26.11
2022-08-05T19:22:17.548Z,26.10
2022-08-05T19:24:54.366Z,26.08
2022-08-05T19:27:30.161Z,26.06
2022-08-05T19:29:58.341Z,26.01
2022-08-05T19:32:26.256Z,25.93
2022-08-05T19:34:56.541Z,25.89
2022-08-05T19:37:35.331Z,25.81
2022-08-05T19:40:15.074Z,25.74
2022-08-05T19:42:42.701Z,25.67
2022-08-05T19:45:33.197Z,25.61
2022-08-05T19:48:05.665Z,25.59
2022-08-05T19:50:34.507Z,25.54
2022-08-05T19:53:10.432Z,25.47
2022-08-05T19:56:13.898Z,25.39
2022-08-05T19:58:29.088Z,25.33
2022-08-05T20:00:58.297Z,25.30
2022-08-05T20:03:26.924Z,25.25
2022-08-05T20:06:15.546Z,25.22
2022-08-05T20:08:47.257Z,25.18
2022-08-05T20:11:18.061Z,25.15
2022-08-05T20:13:54.707Z,25.09
2022-08-05T20:16:26.858Z,25.03
2022-08-05T20:18:55.578Z,24.98
2022-08-05T20:21:24.912Z,24.92
2022-08-05T20:23:53.489Z,24.87
2022-08-05T20:26:24.595Z,24.81
2022-08-05T20:28:57.003Z,24.74
2022-08-05T20:31:28.423Z,24.68
2022-08-05T20:34:11.237Z,24.61
2022-08-05T20:36:43.527Z,24.48
2022-08-05T20:39:13.564Z,24.40
2022-08-05T20:41:46.418Z,24.33
2022-08-05T20:44:29.789Z,24.22
2022-08-05T20:47:01.084Z,24.13
2022-08-05T20:49:28.911Z,24.11
2022-08-05T20:51:57.310Z,24.07
2022-08-05T20:54:59.532Z,24.04
2022-08-05T20:57:42.050Z,24.02
2022-08-05T21:00:19.846Z,24.06
2022-08-05T21:02:57.681Z,24.09
2022-08-05T21:05:25.763Z,24.13
2022-08-05T21:08:06.012Z,24.16
2022-08-05T21:10:33.643Z,24.13
2022-08-05T21:13:10.334Z,24.13
2022-08-05T21:15:44.520Z,24.03
2022-08-05T21:18:18.354Z,23.91
2022-08-05T21:20:45.681Z,23.86
2022-08-05T21:23:14.215Z,23.80
2022-08-05T21:25:44.629Z,23.79
2022-08-05T21:28:11.853Z,23.81
2022-08-05T21:30:39.553Z,23.86
2022-08-05T21:33:11.692Z,23.88
2022-08-05T21:35:58.877Z,23.88
2022-08-05T21:38:27.511Z,23.84
2022-08-05T21:40:54.816Z,23.83
2022-08-05T21:43:24.415Z,23.80
2022-08-05T21:45:57.720Z,23.78
2022-08-05T21:48:28.701Z,23.77
2022-08-05T21:50:56.268Z,23.74
2022-08-05T21:53:27.313Z,23.69
2022-08-05T21:56:09.640Z,23.61
2022-08-05T21:58:57.078Z,23.53
2022-08-05T22:01:26.627Z,23.54
2022-08-05T22:03:55.386Z,23.50
2022-08-05T22:06:35.078Z,23.49
2022-08-05T22:09:14.557Z,23.46
2022-08-05T22:11:46.920Z,23.38
2022-08-05T22:14:35.532Z,23.33
2022-08-05T22:17:06.618Z,23.24
2022-08-05T22:19:57.513Z,23.13
2022-08-05T22:22:28.098Z,23.13
2022-08-05T22:25:18.262Z,23.12
2022-08-05T22:28:09.029Z,23.10
2022-08-05T22:30:56.716Z,23.07
2022-08-05T22:33:57.519Z,23.06
2022-08-05T22:36:15.334Z,23.09
2022-08-05T22:38:48.054Z,23.10
2022-08-05T22:41:26.235Z,23.05
2022-08-05T22:44:08.977Z,23.08
2022-08-05T22:46:39.996Z,23.08
2022-08-05T22:49:23.008Z,23.09
2022-08-05T22:52:05.620Z,23.08
2022-08-05T22:54:36.914Z,23.10
2022-08-05T22:57:06.418Z,23.11
2022-08-05T22:59:43.966Z,23.10
2022-08-05T23:02:18.107Z,23.04
2022-08-05T23:04:52.080Z,23.05
2022-08-05T23:07:21.865Z,23.08
2022-08-05T23:09:57.531Z,23.11
2022-08-05T23:12:32.451Z,23.11
2022-08-05T23:15:08.828Z,23.12
2022-08-05T23:17:37.887Z,23.12
2022-08-05T23:20:24.386Z,23.09
2022-08-05T23:22:56.002Z,23.06
2022-08-05T23:25:53.688Z,23.05
2022-08-05T23:28:12.128Z,23.04
2022-08-05T23:30:43.739Z,23.05
2022-08-05T23:33:22.068Z,23.05
2022-08-05T23:35:56.028Z,23.04
2022-08-05T23:38:25.478Z,22.99
2022-08-05T23:40:53.101Z,23.02
2022-08-05T23:43:25.321Z,22.99
2022-08-05T23:46:20.943Z,22.90
2022-08-05T23:49:00.257Z,22.75
2022-08-05T23:51:55.219Z,22.55
2022-08-05T23:54:30.387Z,22.38
2022-08-05T23:57:03.890Z,22.29
2022-08-05T23:59:37.740Z,22.30
